Burgin, KY (40310)

01:05 AM EST del 04 Dicembre 2016 (GMT -0500)
Berwick Drive | | Change Station

Alt. 980 ft 37.66 °N, 84.79 °W | Updated 10 seconds ago

Overcast
Coperto
37.3 °F
Sembra 37 °F
N
0.0
Vento Variabile Vento da SE
Gusts 2.0 mph

Oggi
Massima -- | Minima -- °F
--% Possibilità di precip.
Ieri
Massima -- | Minima -- °F
Precip. -- in
Pressione 30.23 in
Visibilità 10.0 miglia
Nuvole Coperto 11000 ft
Raffreddamento del vento 37 °F
Punto di rugiada 32 °F
Umidità 81%
Piovosità 0.00 in
Spessore del manto nevoso Non disponibile.
7:38 AM 5:20 PM
Luna crescente, 20% visible
METAR KDVK 040555Z AUTO 09004KT 10SM OVC110 02/00 A3023 RMK AO2
Pressione 30.23 in
Visibilità 10.0 miglia
Nuvole Coperto 11000 ft
Raffreddamento del vento 37 °F
Punto di rugiada 32 °F
Umidità 81%
Piovosità 0.00 in
Spessore del manto nevoso Non disponibile.
7:38 AM 5:20 PM
Luna crescente, 20% visible
METAR KDVK 040555Z AUTO 09004KT 10SM OVC110 02/00 A3023 RMK AO2

10-Day Weather Forecast

Almanac

Astronomia

Dec. 04, 2016 Alba Tramonto
Ora attuale
Crepuscolo civile
Crepuscolo nautico
Crepuscolo astronomico
Luna
Estensione della luce visibile
Lunghezza del giorno
Tomorrow will be .
, % of the Moon is Illuminated

Gli estremi di oggi

State Highs State Lows

Community

WunderPhotos

Upload Photos

1,955,587 foto caricate!

WunderBlog® & News

Nearby

Qualità dell'aria

  Qualità dell'aria Indice AQ Inquinante
Not available.

Profondità neve

Stazione Profondità Altitudine

Attività sismica

Città  Distanza Mag. Data & Ora
Minimo Magnitudo Mostrato è 2.5.

Temperature delle acque costiere

Località Temperatura

Stations

Stazioni meteo nelle vicinanze

Ubicazione della stazione Temp. Raffreddamento del vento Punto di rugiada Umidità Vento Precip. Alt. Aggiornato Tipo
                   

Watches & Warnings

There are currently no watches in effect.